sensor_id;sensor_type;location;lat;lon;timestamp;P1;durP1;ratioP1;P2;durP2;ratioP2
27921;SDS011;15261;50.356;10.340;2022-12-07T22:15:54;8.73;;;7.23;;
27921;SDS011;15261;50.356;10.340;2022-12-07T22:18:19;10.17;;;7.33;;
27921;SDS011;15261;50.356;10.340;2022-12-07T22:20:45;11.27;;;8.10;;
27921;SDS011;15261;50.356;10.340;2022-12-07T22:23:11;10.33;;;8.03;;
27921;SDS011;15261;50.356;10.340;2022-12-07T22:28:40;9.73;;;8.73;;
27921;SDS011;15261;50.356;10.340;2022-12-07T22:31:07;11.33;;;8.73;;
27921;SDS011;15261;50.356;10.340;2022-12-07T22:33:35;11.97;;;8.97;;
27921;SDS011;15261;50.356;10.340;2022-12-07T22:36:01;10.00;;;8.73;;
27921;SDS011;15261;50.356;10.340;2022-12-07T22:38:27;11.87;;;8.83;;
27921;SDS011;15261;50.356;10.340;2022-12-07T22:40:53;11.17;;;7.87;;
27921;SDS011;15261;50.356;10.340;2022-12-07T22:43:20;9.83;;;7.40;;
27921;SDS011;15261;50.356;10.340;2022-12-07T22:45:53;11.63;;;8.00;;
27921;SDS011;15261;50.356;10.340;2022-12-07T22:48:24;11.70;;;8.23;;
27921;SDS011;15261;50.356;10.340;2022-12-07T22:50:51;10.00;;;7.73;;
27921;SDS011;15261;50.356;10.340;2022-12-07T22:53:18;9.10;;;7.10;;
27921;SDS011;15261;50.356;10.340;2022-12-07T22:55:47;9.17;;;7.27;;
27921;SDS011;15261;50.356;10.340;2022-12-07T22:58:13;8.10;;;7.30;;
27921;SDS011;15261;50.356;10.340;2022-12-07T23:00:39;9.87;;;7.47;;
27921;SDS011;15261;50.356;10.340;2022-12-07T23:03:05;10.07;;;7.33;;
27921;SDS011;15261;50.356;10.340;2022-12-07T23:05:31;10.10;;;7.87;;
27921;SDS011;15261;50.356;10.340;2022-12-07T23:07:57;12.23;;;7.97;;
27921;SDS011;15261;50.356;10.340;2022-12-07T23:10:23;10.07;;;7.90;;
27921;SDS011;15261;50.356;10.340;2022-12-07T23:12:48;9.77;;;7.80;;
27921;SDS011;15261;50.356;10.340;2022-12-07T23:15:33;11.23;;;7.87;;
27921;SDS011;15261;50.356;10.340;2022-12-07T23:18:02;10.63;;;7.70;;
27921;SDS011;15261;50.356;10.340;2022-12-07T23:20:28;10.33;;;8.30;;
27921;SDS011;15261;50.356;10.340;2022-12-07T23:22:54;8.80;;;7.50;;
27921;SDS011;15261;50.356;10.340;2022-12-07T23:28:09;10.03;;;8.00;;
27921;SDS011;15261;50.356;10.340;2022-12-07T23:30:37;10.03;;;7.57;;
27921;SDS011;15261;50.356;10.340;2022-12-07T23:33:03;11.80;;;8.40;;
27921;SDS011;15261;50.356;10.340;2022-12-07T23:35:28;8.83;;;7.90;;
27921;SDS011;15261;50.356;10.340;2022-12-07T23:37:54;8.57;;;7.73;;
27921;SDS011;15261;50.356;10.340;2022-12-07T23:40:19;10.67;;;8.40;;
27921;SDS011;15261;50.356;10.340;2022-12-07T23:42:45;9.40;;;8.50;;
27921;SDS011;15261;50.356;10.340;2022-12-07T23:45:10;10.47;;;8.80;;
27921;SDS011;15261;50.356;10.340;2022-12-07T23:47:37;11.33;;;8.60;;
27921;SDS011;15261;50.356;10.340;2022-12-07T23:50:02;10.23;;;8.80;;
27921;SDS011;15261;50.356;10.340;2022-12-07T23:52:29;11.30;;;9.20;;
27921;SDS011;15261;50.356;10.340;2022-12-07T23:54:55;10.10;;;8.57;;
27921;SDS011;15261;50.356;10.340;2022-12-07T23:57:20;9.77;;;8.53;;
27921;SDS011;15261;50.356;10.340;2022-12-07T23:59:46;12.47;;;9.60;;
